sensor_id;sensor_type;location;lat;lon;timestamp;P1;durP1;ratioP1;P2;durP2;ratioP2
53145;SDS011;39042;53.150;5.898;2023-04-28T00:01:49;9.87;;;4.00;;
53145;SDS011;39042;53.150;5.898;2023-04-28T00:04:15;11.80;;;5.57;;
53145;SDS011;39042;53.150;5.898;2023-04-28T00:06:41;10.30;;;5.53;;
53145;SDS011;39042;53.150;5.898;2023-04-28T00:09:06;11.90;;;5.63;;
53145;SDS011;39042;53.150;5.898;2023-04-28T00:11:36;10.40;;;5.47;;
53145;SDS011;39042;53.150;5.898;2023-04-28T00:14:02;9.27;;;4.75;;
53145;SDS011;39042;53.150;5.898;2023-04-28T00:16:29;10.05;;;4.85;;
53145;SDS011;39042;53.150;5.898;2023-04-28T00:18:54;8.63;;;5.27;;
53145;SDS011;39042;53.150;5.898;2023-04-28T00:21:20;8.33;;;4.97;;
53145;SDS011;39042;53.150;5.898;2023-04-28T00:23:46;9.30;;;4.77;;
53145;SDS011;39042;53.150;5.898;2023-04-28T00:26:12;8.70;;;5.30;;
53145;SDS011;39042;53.150;5.898;2023-04-28T00:28:40;9.32;;;4.72;;
53145;SDS011;39042;53.150;5.898;2023-04-28T00:31:10;10.20;;;5.30;;
53145;SDS011;39042;53.150;5.898;2023-04-28T00:33:37;9.20;;;5.30;;
53145;SDS011;39042;53.150;5.898;2023-04-28T00:36:03;10.65;;;5.55;;
53145;SDS011;39042;53.150;5.898;2023-04-28T00:38:30;10.32;;;6.13;;
53145;SDS011;39042;53.150;5.898;2023-04-28T00:40:55;7.67;;;4.50;;
53145;SDS011;39042;53.150;5.898;2023-04-28T00:43:21;7.87;;;5.10;;
53145;SDS011;39042;53.150;5.898;2023-04-28T00:45:50;9.20;;;5.20;;
53145;SDS011;39042;53.150;5.898;2023-04-28T00:48:17;10.40;;;5.05;;
53145;SDS011;39042;53.150;5.898;2023-04-28T00:50:43;8.07;;;5.40;;
53145;SDS011;39042;53.150;5.898;2023-04-28T00:53:10;10.20;;;6.25;;
53145;SDS011;39042;53.150;5.898;2023-04-28T00:55:36;8.77;;;5.20;;
53145;SDS011;39042;53.150;5.898;2023-04-28T00:58:06;10.93;;;5.63;;
53145;SDS011;39042;53.150;5.898;2023-04-28T01:00:33;9.60;;;5.07;;
53145;SDS011;39042;53.150;5.898;2023-04-28T01:02:59;10.38;;;5.10;;
53145;SDS011;39042;53.150;5.898;2023-04-28T01:05:28;10.70;;;6.07;;
53145;SDS011;39042;53.150;5.898;2023-04-28T01:07:55;7.43;;;5.40;;
53145;SDS011;39042;53.150;5.898;2023-04-28T01:10:21;13.73;;;5.37;;
53145;SDS011;39042;53.150;5.898;2023-04-28T01:12:47;8.45;;;5.32;;
53145;SDS011;39042;53.150;5.898;2023-04-28T01:15:15;9.17;;;5.23;;
53145;SDS011;39042;53.150;5.898;2023-04-28T01:17:43;9.27;;;5.78;;
53145;SDS011;39042;53.150;5.898;2023-04-28T01:20:13;12.82;;;5.88;;
53145;SDS011;39042;53.150;5.898;2023-04-28T01:25:06;9.98;;;5.50;;
53145;SDS011;39042;53.150;5.898;2023-04-28T01:27:32;12.20;;;6.13;;
53145;SDS011;39042;53.150;5.898;2023-04-28T01:32:25;9.60;;;5.40;;
53145;SDS011;39042;53.150;5.898;2023-04-28T01:34:50;10.83;;;6.03;;
53145;SDS011;39042;53.150;5.898;2023-04-28T01:37:16;6.50;;;5.00;;
53145;SDS011;39042;53.150;5.898;2023-04-28T01:39:42;10.87;;;5.40;;
53145;SDS011;39042;53.150;5.898;2023-04-28T01:42:08;10.17;;;4.97;;
53145;SDS011;39042;53.150;5.898;2023-04-28T01:44:33;9.43;;;5.67;;
53145;SDS011;39042;53.150;5.898;2023-04-28T01:46:59;13.80;;;5.97;;
53145;SDS011;39042;53.150;5.898;2023-04-28T01:49:25;10.67;;;6.50;;
53145;SDS011;39042;53.150;5.898;2023-04-28T01:51:51;9.77;;;5.77;;
53145;SDS011;39042;53.150;5.898;2023-04-28T01:54:16;11.77;;;5.80;;
53145;SDS011;39042;53.150;5.898;2023-04-28T01:56:42;11.47;;;6.20;;
53145;SDS011;39042;53.150;5.898;2023-04-28T01:59:10;9.55;;;5.45;;
53145;SDS011;39042;53.150;5.898;2023-04-28T02:01:36;9.90;;;5.30;;
53145;SDS011;39042;53.150;5.898;2023-04-28T02:04:01;12.93;;;5.73;;
53145;SDS011;39042;53.150;5.898;2023-04-28T02:06:31;10.05;;;5.28;;
53145;SDS011;39042;53.150;5.898;2023-04-28T02:08:56;11.93;;;6.40;;
53145;SDS011;39042;53.150;5.898;2023-04-28T02:11:22;10.47;;;6.80;;
53145;SDS011;39042;53.150;5.898;2023-04-28T02:13:52;13.70;;;5.82;;
53145;SDS011;39042;53.150;5.898;2023-04-28T02:16:18;9.10;;;4.10;;
53145;SDS011;39042;53.150;5.898;2023-04-28T02:18:44;9.80;;;5.63;;
53145;SDS011;39042;53.150;5.898;2023-04-28T02:21:10;8.33;;;4.17;;
53145;SDS011;39042;53.150;5.898;2023-04-28T02:23:36;13.80;;;6.50;;
53145;SDS011;39042;53.150;5.898;2023-04-28T02:26:03;12.32;;;5.80;;
53145;SDS011;39042;53.150;5.898;2023-04-28T02:28:29;10.10;;;6.17;;
53145;SDS011;39042;53.150;5.898;2023-04-28T02:31:29;12.57;;;6.70;;
53145;SDS011;39042;53.150;5.898;2023-04-28T02:33:48;11.10;;;6.60;;
53145;SDS011;39042;53.150;5.898;2023-04-28T02:36:14;12.18;;;6.88;;
53145;SDS011;39042;53.150;5.898;2023-04-28T02:38:40;11.40;;;5.63;;
53145;SDS011;39042;53.150;5.898;2023-04-28T02:41:06;8.83;;;5.03;;
53145;SDS011;39042;53.150;5.898;2023-04-28T02:43:36;13.90;;;6.40;;
53145;SDS011;39042;53.150;5.898;2023-04-28T02:46:02;11.70;;;7.13;;
53145;SDS011;39042;53.150;5.898;2023-04-28T02:48:29;11.02;;;7.05;;
53145;SDS011;39042;53.150;5.898;2023-04-28T02:50:55;12.95;;;7.50;;
53145;SDS011;39042;53.150;5.898;2023-04-28T02:53:21;13.47;;;7.47;;
53145;SDS011;39042;53.150;5.898;2023-04-28T02:55:48;13.40;;;7.80;;
53145;SDS011;39042;53.150;5.898;2023-04-28T02:58:14;10.53;;;6.93;;
53145;SDS011;39042;53.150;5.898;2023-04-28T03:00:41;11.65;;;7.30;;
53145;SDS011;39042;53.150;5.898;2023-04-28T03:03:07;12.30;;;7.13;;
53145;SDS011;39042;53.150;5.898;2023-04-28T03:05:33;14.57;;;7.47;;
53145;SDS011;39042;53.150;5.898;2023-04-28T03:07:59;15.23;;;6.53;;
53145;SDS011;39042;53.150;5.898;2023-04-28T03:10:25;9.60;;;6.27;;
53145;SDS011;39042;53.150;5.898;2023-04-28T03:12:51;13.20;;;8.17;;
53145;SDS011;39042;53.150;5.898;2023-04-28T03:15:16;13.97;;;7.93;;
53145;SDS011;39042;53.150;5.898;2023-04-28T03:17:42;14.70;;;7.87;;
53145;SDS011;39042;53.150;5.898;2023-04-28T03:20:09;12.60;;;6.47;;
53145;SDS011;39042;53.150;5.898;2023-04-28T03:22:35;15.10;;;8.52;;
53145;SDS011;39042;53.150;5.898;2023-04-28T03:25:01;16.33;;;8.23;;
53145;SDS011;39042;53.150;5.898;2023-04-28T03:27:30;14.90;;;8.55;;
53145;SDS011;39042;53.150;5.898;2023-04-28T03:29:56;11.45;;;5.78;;
53145;SDS011;39042;53.150;5.898;2023-04-28T03:32:22;13.23;;;8.00;;
53145;SDS011;39042;53.150;5.898;2023-04-28T03:34:48;15.53;;;8.43;;
53145;SDS011;39042;53.150;5.898;2023-04-28T03:37:14;17.37;;;8.40;;
53145;SDS011;39042;53.150;5.898;2023-04-28T03:39:39;14.67;;;8.80;;
53145;SDS011;39042;53.150;5.898;2023-04-28T03:42:05;14.00;;;8.45;;
53145;SDS011;39042;53.150;5.898;2023-04-28T03:44:50;16.05;;;9.05;;
53145;SDS011;39042;53.150;5.898;2023-04-28T03:47:16;12.40;;;8.10;;
53145;SDS011;39042;53.150;5.898;2023-04-28T03:49:42;17.00;;;9.05;;
53145;SDS011;39042;53.150;5.898;2023-04-28T03:52:08;15.38;;;9.70;;
53145;SDS011;39042;53.150;5.898;2023-04-28T03:54:34;17.87;;;10.00;;
53145;SDS011;39042;53.150;5.898;2023-04-28T03:57:00;16.03;;;9.03;;
53145;SDS011;39042;53.150;5.898;2023-04-28T03:59:26;17.30;;;10.30;;
53145;SDS011;39042;53.150;5.898;2023-04-28T04:01:51;11.20;;;7.27;;
53145;SDS011;39042;53.150;5.898;2023-04-28T04:04:17;18.93;;;9.60;;
53145;SDS011;39042;53.150;5.898;2023-04-28T04:06:43;17.85;;;9.35;;
53145;SDS011;39042;53.150;5.898;2023-04-28T04:09:10;19.05;;;9.77;;
53145;SDS011;39042;53.150;5.898;2023-04-28T04:11:36;13.37;;;6.97;;
53145;SDS011;39042;53.150;5.898;2023-04-28T04:14:02;15.70;;;9.60;;
53145;SDS011;39042;53.150;5.898;2023-04-28T04:16:28;19.87;;;10.87;;
53145;SDS011;39042;53.150;5.898;2023-04-28T04:18:56;18.27;;;10.38;;
53145;SDS011;39042;53.150;5.898;2023-04-28T04:21:28;18.05;;;11.05;;
53145;SDS011;39042;53.150;5.898;2023-04-28T04:23:54;19.30;;;11.13;;
53145;SDS011;39042;53.150;5.898;2023-04-28T04:26:20;20.60;;;11.03;;
53145;SDS011;39042;53.150;5.898;2023-04-28T04:28:48;20.73;;;12.23;;
53145;SDS011;39042;53.150;5.898;2023-04-28T04:31:14;18.83;;;10.63;;
53145;SDS011;39042;53.150;5.898;2023-04-28T04:33:40;18.67;;;11.30;;
53145;SDS011;39042;53.150;5.898;2023-04-28T04:36:06;14.17;;;8.20;;
53145;SDS011;39042;53.150;5.898;2023-04-28T04:38:32;20.87;;;10.97;;
53145;SDS011;39042;53.150;5.898;2023-04-28T04:41:06;18.92;;;10.90;;
53145;SDS011;39042;53.150;5.898;2023-04-28T04:43:32;13.03;;;7.57;;
53145;SDS011;39042;53.150;5.898;2023-04-28T04:45:58;18.97;;;10.50;;
53145;SDS011;39042;53.150;5.898;2023-04-28T04:48:24;18.88;;;11.35;;
53145;SDS011;39042;53.150;5.898;2023-04-28T04:50:50;18.70;;;10.87;;
53145;SDS011;39042;53.150;5.898;2023-04-28T04:53:16;19.87;;;10.80;;
53145;SDS011;39042;53.150;5.898;2023-04-28T04:55:42;18.90;;;11.18;;
53145;SDS011;39042;53.150;5.898;2023-04-28T04:58:08;19.90;;;11.20;;
53145;SDS011;39042;53.150;5.898;2023-04-28T05:00:53;22.98;;;11.25;;
53145;SDS011;39042;53.150;5.898;2023-04-28T05:03:19;18.80;;;10.15;;
53145;SDS011;39042;53.150;5.898;2023-04-28T05:05:47;19.20;;;11.27;;
53145;SDS011;39042;53.150;5.898;2023-04-28T05:08:19;19.05;;;11.02;;
53145;SDS011;39042;53.150;5.898;2023-04-28T05:10:45;18.20;;;10.43;;
53145;SDS011;39042;53.150;5.898;2023-04-28T05:13:12;19.50;;;10.05;;
53145;SDS011;39042;53.150;5.898;2023-04-28T05:15:39;20.30;;;10.98;;
53145;SDS011;39042;53.150;5.898;2023-04-28T05:18:21;16.85;;;9.65;;
53145;SDS011;39042;53.150;5.898;2023-04-28T05:20:46;21.10;;;11.33;;
53145;SDS011;39042;53.150;5.898;2023-04-28T05:23:15;20.90;;;11.50;;
53145;SDS011;39042;53.150;5.898;2023-04-28T05:25:41;20.50;;;11.33;;
53145;SDS011;39042;53.150;5.898;2023-04-28T05:28:08;20.63;;;11.20;;
53145;SDS011;39042;53.150;5.898;2023-04-28T05:30:34;18.50;;;10.18;;
53145;SDS011;39042;53.150;5.898;2023-04-28T05:33:01;18.10;;;9.98;;
53145;SDS011;39042;53.150;5.898;2023-04-28T05:35:26;19.87;;;10.80;;
53145;SDS011;39042;53.150;5.898;2023-04-28T05:37:52;23.40;;;10.70;;
53145;SDS011;39042;53.150;5.898;2023-04-28T05:40:19;22.17;;;10.32;;
53145;SDS011;39042;53.150;5.898;2023-04-28T05:42:45;22.87;;;10.93;;
53145;SDS011;39042;53.150;5.898;2023-04-28T05:45:13;19.10;;;10.95;;
53145;SDS011;39042;53.150;5.898;2023-04-28T05:47:40;16.98;;;9.85;;
53145;SDS011;39042;53.150;5.898;2023-04-28T05:50:06;19.53;;;10.90;;
53145;SDS011;39042;53.150;5.898;2023-04-28T05:52:32;17.77;;;9.77;;
53145;SDS011;39042;53.150;5.898;2023-04-28T05:54:58;19.37;;;10.30;;
53145;SDS011;39042;53.150;5.898;2023-04-28T05:57:26;21.65;;;10.20;;
53145;SDS011;39042;53.150;5.898;2023-04-28T05:59:52;18.40;;;10.80;;
53145;SDS011;39042;53.150;5.898;2023-04-28T06:02:18;17.47;;;10.13;;
53145;SDS011;39042;53.150;5.898;2023-04-28T06:04:44;17.50;;;9.90;;
53145;SDS011;39042;53.150;5.898;2023-04-28T06:07:10;21.90;;;10.10;;
53145;SDS011;39042;53.150;5.898;2023-04-28T06:09:36;25.77;;;10.70;;
53145;SDS011;39042;53.150;5.898;2023-04-28T06:12:02;17.63;;;10.57;;
53145;SDS011;39042;53.150;5.898;2023-04-28T06:14:28;19.98;;;10.88;;
53145;SDS011;39042;53.150;5.898;2023-04-28T06:16:54;20.53;;;11.07;;
53145;SDS011;39042;53.150;5.898;2023-04-28T06:19:20;21.00;;;11.32;;
53145;SDS011;39042;53.150;5.898;2023-04-28T06:21:46;20.83;;;10.77;;
53145;SDS011;39042;53.150;5.898;2023-04-28T06:24:14;18.27;;;9.65;;
53145;SDS011;39042;53.150;5.898;2023-04-28T06:26:43;19.55;;;10.88;;
53145;SDS011;39042;53.150;5.898;2023-04-28T06:29:09;17.03;;;10.80;;
53145;SDS011;39042;53.150;5.898;2023-04-28T06:31:35;20.52;;;11.05;;
53145;SDS011;39042;53.150;5.898;2023-04-28T06:34:01;16.97;;;10.57;;
53145;SDS011;39042;53.150;5.898;2023-04-28T06:36:26;26.53;;;9.07;;
53145;SDS011;39042;53.150;5.898;2023-04-28T06:38:52;13.03;;;8.27;;
53145;SDS011;39042;53.150;5.898;2023-04-28T06:41:18;19.58;;;10.82;;
53145;SDS011;39042;53.150;5.898;2023-04-28T06:43:48;18.38;;;11.30;;
53145;SDS011;39042;53.150;5.898;2023-04-28T06:46:26;17.13;;;9.70;;
53145;SDS011;39042;53.150;5.898;2023-04-28T06:48:52;19.57;;;10.37;;
53145;SDS011;39042;53.150;5.898;2023-04-28T06:51:18;19.63;;;10.23;;
53145;SDS011;39042;53.150;5.898;2023-04-28T06:53:44;18.10;;;10.07;;
53145;SDS011;39042;53.150;5.898;2023-04-28T06:56:10;16.03;;;9.47;;
53145;SDS011;39042;53.150;5.898;2023-04-28T06:58:35;20.13;;;9.87;;
53145;SDS011;39042;53.150;5.898;2023-04-28T07:01:01;18.63;;;10.50;;
53145;SDS011;39042;53.150;5.898;2023-04-28T07:03:28;19.02;;;10.25;;
53145;SDS011;39042;53.150;5.898;2023-04-28T07:05:53;19.00;;;10.70;;
53145;SDS011;39042;53.150;5.898;2023-04-28T07:08:19;20.73;;;10.70;;
53145;SDS011;39042;53.150;5.898;2023-04-28T07:10:45;16.23;;;9.98;;
53145;SDS011;39042;53.150;5.898;2023-04-28T07:13:11;21.60;;;10.17;;
53145;SDS011;39042;53.150;5.898;2023-04-28T07:15:37;18.13;;;9.93;;
53145;SDS011;39042;53.150;5.898;2023-04-28T07:18:02;18.07;;;10.00;;
53145;SDS011;39042;53.150;5.898;2023-04-28T07:20:28;18.33;;;9.90;;
53145;SDS011;39042;53.150;5.898;2023-04-28T07:22:54;15.53;;;9.23;;
53145;SDS011;39042;53.150;5.898;2023-04-28T07:25:20;20.33;;;11.00;;
53145;SDS011;39042;53.150;5.898;2023-04-28T07:27:46;16.63;;;8.90;;
53145;SDS011;39042;53.150;5.898;2023-04-28T07:30:12;16.43;;;10.67;;
53145;SDS011;39042;53.150;5.898;2023-04-28T07:32:37;19.00;;;10.40;;
53145;SDS011;39042;53.150;5.898;2023-04-28T07:35:03;22.43;;;10.70;;
53145;SDS011;39042;53.150;5.898;2023-04-28T07:37:30;20.80;;;11.02;;
53145;SDS011;39042;53.150;5.898;2023-04-28T07:39:56;19.63;;;10.17;;
53145;SDS011;39042;53.150;5.898;2023-04-28T07:42:22;16.37;;;10.87;;
53145;SDS011;39042;53.150;5.898;2023-04-28T07:44:48;17.23;;;10.43;;
53145;SDS011;39042;53.150;5.898;2023-04-28T07:47:13;19.17;;;11.23;;
53145;SDS011;39042;53.150;5.898;2023-04-28T07:49:39;17.80;;;10.30;;
53145;SDS011;39042;53.150;5.898;2023-04-28T07:52:05;19.17;;;10.87;;
53145;SDS011;39042;53.150;5.898;2023-04-28T07:54:31;17.43;;;10.90;;
53145;SDS011;39042;53.150;5.898;2023-04-28T07:56:56;21.37;;;12.33;;
53145;SDS011;39042;53.150;5.898;2023-04-28T07:59:22;18.20;;;11.53;;
53145;SDS011;39042;53.150;5.898;2023-04-28T08:01:48;20.90;;;11.93;;
53145;SDS011;39042;53.150;5.898;2023-04-28T08:04:14;18.47;;;11.50;;
53145;SDS011;39042;53.150;5.898;2023-04-28T08:06:39;18.57;;;11.10;;
53145;SDS011;39042;53.150;5.898;2023-04-28T08:09:05;19.23;;;10.90;;
53145;SDS011;39042;53.150;5.898;2023-04-28T08:11:31;19.97;;;11.40;;
53145;SDS011;39042;53.150;5.898;2023-04-28T08:13:58;18.95;;;11.48;;
53145;SDS011;39042;53.150;5.898;2023-04-28T08:16:28;20.05;;;11.43;;
53145;SDS011;39042;53.150;5.898;2023-04-28T08:18:54;18.17;;;10.35;;
53145;SDS011;39042;53.150;5.898;2023-04-28T08:21:20;22.77;;;12.37;;
53145;SDS011;39042;53.150;5.898;2023-04-28T08:23:46;19.00;;;11.03;;
53145;SDS011;39042;53.150;5.898;2023-04-28T08:26:12;21.13;;;11.60;;
53145;SDS011;39042;53.150;5.898;2023-04-28T08:28:38;19.43;;;11.77;;
53145;SDS011;39042;53.150;5.898;2023-04-28T08:31:04;18.95;;;10.75;;
53145;SDS011;39042;53.150;5.898;2023-04-28T08:33:30;17.23;;;9.00;;
53145;SDS011;39042;53.150;5.898;2023-04-28T08:35:56;18.10;;;10.13;;
53145;SDS011;39042;53.150;5.898;2023-04-28T08:38:21;21.93;;;12.17;;
53145;SDS011;39042;53.150;5.898;2023-04-28T08:40:49;20.80;;;10.95;;
53145;SDS011;39042;53.150;5.898;2023-04-28T08:43:16;19.00;;;11.05;;
53145;SDS011;39042;53.150;5.898;2023-04-28T08:45:42;17.40;;;10.20;;
53145;SDS011;39042;53.150;5.898;2023-04-28T08:50:43;16.08;;;10.27;;
53145;SDS011;39042;53.150;5.898;2023-04-28T08:53:15;16.48;;;9.40;;
53145;SDS011;39042;53.150;5.898;2023-04-28T08:55:46;17.10;;;11.45;;
53145;SDS011;39042;53.150;5.898;2023-04-28T08:58:14;20.88;;;11.45;;
53145;SDS011;39042;53.150;5.898;2023-04-28T09:00:40;19.48;;;11.00;;
53145;SDS011;39042;53.150;5.898;2023-04-28T09:03:06;17.27;;;10.93;;
53145;SDS011;39042;53.150;5.898;2023-04-28T09:05:33;17.45;;;10.60;;
53145;SDS011;39042;53.150;5.898;2023-04-28T09:08:01;14.98;;;9.90;;
53145;SDS011;39042;53.150;5.898;2023-04-28T09:10:28;17.98;;;11.23;;
53145;SDS011;39042;53.150;5.898;2023-04-28T09:12:54;17.67;;;11.40;;
53145;SDS011;39042;53.150;5.898;2023-04-28T09:15:34;22.83;;;12.52;;
53145;SDS011;39042;53.150;5.898;2023-04-28T09:18:02;17.23;;;11.60;;
53145;SDS011;39042;53.150;5.898;2023-04-28T09:20:31;19.80;;;11.82;;
53145;SDS011;39042;53.150;5.898;2023-04-28T09:23:20;19.30;;;10.82;;
53145;SDS011;39042;53.150;5.898;2023-04-28T09:26:05;19.08;;;11.15;;
53145;SDS011;39042;53.150;5.898;2023-04-28T09:28:32;15.88;;;11.55;;
53145;SDS011;39042;53.150;5.898;2023-04-28T09:33:24;18.45;;;11.73;;
53145;SDS011;39042;53.150;5.898;2023-04-28T09:35:51;16.42;;;10.27;;
53145;SDS011;39042;53.150;5.898;2023-04-28T09:40:54;16.95;;;10.88;;
53145;SDS011;39042;53.150;5.898;2023-04-28T09:43:24;15.88;;;11.15;;
53145;SDS011;39042;53.150;5.898;2023-04-28T09:45:58;17.75;;;10.98;;
53145;SDS011;39042;53.150;5.898;2023-04-28T09:48:31;16.92;;;11.07;;
53145;SDS011;39042;53.150;5.898;2023-04-28T09:50:59;16.95;;;11.38;;
53145;SDS011;39042;53.150;5.898;2023-04-28T09:53:26;18.15;;;11.10;;
53145;SDS011;39042;53.150;5.898;2023-04-28T09:55:53;17.48;;;11.25;;
53145;SDS011;39042;53.150;5.898;2023-04-28T09:58:21;16.05;;;10.70;;
53145;SDS011;39042;53.150;5.898;2023-04-28T10:00:52;15.85;;;11.18;;
53145;SDS011;39042;53.150;5.898;2023-04-28T10:03:20;17.80;;;11.27;;
53145;SDS011;39042;53.150;5.898;2023-04-28T10:05:53;18.90;;;11.57;;
53145;SDS011;39042;53.150;5.898;2023-04-28T10:08:19;16.67;;;11.27;;
53145;SDS011;39042;53.150;5.898;2023-04-28T10:10:46;15.73;;;10.63;;
53145;SDS011;39042;53.150;5.898;2023-04-28T10:13:19;16.25;;;10.75;;
53145;SDS011;39042;53.150;5.898;2023-04-28T10:15:46;15.57;;;10.27;;
53145;SDS011;39042;53.150;5.898;2023-04-28T10:18:18;18.58;;;11.20;;
53145;SDS011;39042;53.150;5.898;2023-04-28T10:20:47;16.17;;;11.18;;
53145;SDS011;39042;53.150;5.898;2023-04-28T10:26:20;17.90;;;11.48;;
53145;SDS011;39042;53.150;5.898;2023-04-28T10:28:51;17.50;;;11.00;;
53145;SDS011;39042;53.150;5.898;2023-04-28T10:31:18;19.33;;;11.20;;
53145;SDS011;39042;53.150;5.898;2023-04-28T10:33:47;16.55;;;11.60;;
53145;SDS011;39042;53.150;5.898;2023-04-28T10:39:28;20.30;;;11.18;;
53145;SDS011;39042;53.150;5.898;2023-04-28T10:41:53;17.87;;;11.97;;
53145;SDS011;39042;53.150;5.898;2023-04-28T10:47:00;17.60;;;11.93;;
53145;SDS011;39042;53.150;5.898;2023-04-28T11:00:44;18.30;;;12.18;;
53145;SDS011;39042;53.150;5.898;2023-04-28T11:06:22;17.45;;;11.55;;
53145;SDS011;39042;53.150;5.898;2023-04-28T11:11:38;17.45;;;11.35;;
53145;SDS011;39042;53.150;5.898;2023-04-28T11:19:28;16.40;;;11.27;;
53145;SDS011;39042;53.150;5.898;2023-04-28T11:21:55;15.95;;;10.77;;
53145;SDS011;39042;53.150;5.898;2023-04-28T11:24:22;17.95;;;11.82;;
53145;SDS011;39042;53.150;5.898;2023-04-28T11:26:51;16.00;;;11.45;;
53145;SDS011;39042;53.150;5.898;2023-04-28T11:29:17;20.25;;;12.48;;
53145;SDS011;39042;53.150;5.898;2023-04-28T11:31:59;17.73;;;11.82;;
53145;SDS011;39042;53.150;5.898;2023-04-28T11:34:25;22.55;;;13.68;;
53145;SDS011;39042;53.150;5.898;2023-04-28T11:36:51;27.37;;;15.97;;
53145;SDS011;39042;53.150;5.898;2023-04-28T11:39:17;34.10;;;18.50;;
53145;SDS011;39042;53.150;5.898;2023-04-28T11:41:52;27.52;;;15.32;;
53145;SDS011;39042;53.150;5.898;2023-04-28T11:44:19;34.40;;;20.23;;
53145;SDS011;39042;53.150;5.898;2023-04-28T11:46:54;26.70;;;17.25;;
53145;SDS011;39042;53.150;5.898;2023-04-28T11:49:22;26.08;;;17.35;;
53145;SDS011;39042;53.150;5.898;2023-04-28T11:51:49;25.95;;;17.17;;
53145;SDS011;39042;53.150;5.898;2023-04-28T11:54:25;15.57;;;11.93;;
53145;SDS011;39042;53.150;5.898;2023-04-28T11:56:52;19.83;;;15.25;;
53145;SDS011;39042;53.150;5.898;2023-04-28T11:59:23;28.35;;;18.23;;
53145;SDS011;39042;53.150;5.898;2023-04-28T12:01:50;22.58;;;15.57;;
53145;SDS011;39042;53.150;5.898;2023-04-28T12:04:34;23.95;;;16.08;;
53145;SDS011;39042;53.150;5.898;2023-04-28T12:07:14;19.23;;;14.23;;
53145;SDS011;39042;53.150;5.898;2023-04-28T12:12:27;18.55;;;13.23;;
53145;SDS011;39042;53.150;5.898;2023-04-28T12:14:55;17.30;;;12.13;;
53145;SDS011;39042;53.150;5.898;2023-04-28T12:17:30;16.55;;;11.90;;
53145;SDS011;39042;53.150;5.898;2023-04-28T12:20:04;15.77;;;12.30;;
53145;SDS011;39042;53.150;5.898;2023-04-28T12:22:53;19.02;;;12.15;;
53145;SDS011;39042;53.150;5.898;2023-04-28T12:25:17;16.67;;;12.15;;
53145;SDS011;39042;53.150;5.898;2023-04-28T12:30:30;16.95;;;11.63;;
53145;SDS011;39042;53.150;5.898;2023-04-28T12:32:57;21.15;;;13.80;;
53145;SDS011;39042;53.150;5.898;2023-04-28T12:35:24;23.47;;;15.10;;
53145;SDS011;39042;53.150;5.898;2023-04-28T12:37:51;21.10;;;15.88;;
53145;SDS011;39042;53.150;5.898;2023-04-28T12:40:18;23.92;;;17.38;;
53145;SDS011;39042;53.150;5.898;2023-04-28T12:42:44;29.65;;;16.90;;
53145;SDS011;39042;53.150;5.898;2023-04-28T12:45:10;20.75;;;15.07;;
53145;SDS011;39042;53.150;5.898;2023-04-28T12:47:36;22.13;;;14.97;;
53145;SDS011;39042;53.150;5.898;2023-04-28T12:52:28;21.88;;;13.82;;
53145;SDS011;39042;53.150;5.898;2023-04-28T12:54:58;19.90;;;14.15;;
53145;SDS011;39042;53.150;5.898;2023-04-28T12:57:24;17.77;;;13.60;;
53145;SDS011;39042;53.150;5.898;2023-04-28T12:59:50;20.73;;;14.55;;
53145;SDS011;39042;53.150;5.898;2023-04-28T13:02:17;21.58;;;15.48;;
53145;SDS011;39042;53.150;5.898;2023-04-28T13:04:43;21.40;;;15.68;;
53145;SDS011;39042;53.150;5.898;2023-04-28T13:07:12;23.67;;;15.63;;
53145;SDS011;39042;53.150;5.898;2023-04-28T13:09:41;31.27;;;17.63;;
53145;SDS011;39042;53.150;5.898;2023-04-28T13:12:08;28.88;;;19.55;;
53145;SDS011;39042;53.150;5.898;2023-04-28T13:14:34;40.83;;;25.67;;
53145;SDS011;39042;53.150;5.898;2023-04-28T13:17:00;30.87;;;23.00;;
53145;SDS011;39042;53.150;5.898;2023-04-28T13:19:27;31.60;;;24.50;;
53145;SDS011;39042;53.150;5.898;2023-04-28T13:21:54;34.78;;;24.88;;
53145;SDS011;39042;53.150;5.898;2023-04-28T13:24:20;30.50;;;22.35;;
53145;SDS011;39042;53.150;5.898;2023-04-28T13:26:46;29.83;;;19.97;;
53145;SDS011;39042;53.150;5.898;2023-04-28T13:29:11;29.00;;;20.02;;
53145;SDS011;39042;53.150;5.898;2023-04-28T13:31:38;25.67;;;17.15;;
53145;SDS011;39042;53.150;5.898;2023-04-28T13:34:05;26.45;;;18.85;;
53145;SDS011;39042;53.150;5.898;2023-04-28T13:36:32;27.13;;;18.55;;
53145;SDS011;39042;53.150;5.898;2023-04-28T13:38:58;82.00;;;53.58;;
53145;SDS011;39042;53.150;5.898;2023-04-28T13:41:23;41.23;;;26.77;;
53145;SDS011;39042;53.150;5.898;2023-04-28T13:43:50;28.73;;;19.63;;
53145;SDS011;39042;53.150;5.898;2023-04-28T13:46:16;32.27;;;21.77;;
53145;SDS011;39042;53.150;5.898;2023-04-28T13:48:42;25.65;;;18.55;;
53145;SDS011;39042;53.150;5.898;2023-04-28T13:51:07;28.67;;;20.23;;
53145;SDS011;39042;53.150;5.898;2023-04-28T13:53:34;26.23;;;19.40;;
53145;SDS011;39042;53.150;5.898;2023-04-28T13:56:01;29.55;;;21.20;;
53145;SDS011;39042;53.150;5.898;2023-04-28T13:58:27;31.03;;;21.10;;
53145;SDS011;39042;53.150;5.898;2023-04-28T14:00:54;39.05;;;27.50;;
53145;SDS011;39042;53.150;5.898;2023-04-28T14:03:21;34.70;;;23.65;;
53145;SDS011;39042;53.150;5.898;2023-04-28T14:05:48;34.63;;;22.77;;
53145;SDS011;39042;53.150;5.898;2023-04-28T14:08:16;34.28;;;23.35;;
53145;SDS011;39042;53.150;5.898;2023-04-28T14:10:42;37.90;;;24.58;;
53145;SDS011;39042;53.150;5.898;2023-04-28T14:13:08;32.87;;;22.13;;
53145;SDS011;39042;53.150;5.898;2023-04-28T14:15:34;32.17;;;21.63;;
53145;SDS011;39042;53.150;5.898;2023-04-28T14:18:01;29.50;;;21.53;;
53145;SDS011;39042;53.150;5.898;2023-04-28T14:20:27;33.22;;;23.15;;
53145;SDS011;39042;53.150;5.898;2023-04-28T14:22:53;33.20;;;23.20;;
53145;SDS011;39042;53.150;5.898;2023-04-28T14:25:19;34.93;;;24.97;;
53145;SDS011;39042;53.150;5.898;2023-04-28T14:27:47;24.83;;;19.47;;
53145;SDS011;39042;53.150;5.898;2023-04-28T14:30:14;28.45;;;21.05;;
53145;SDS011;39042;53.150;5.898;2023-04-28T14:32:40;29.58;;;21.02;;
53145;SDS011;39042;53.150;5.898;2023-04-28T14:35:06;39.27;;;24.70;;
53145;SDS011;39042;53.150;5.898;2023-04-28T14:37:32;34.80;;;23.15;;
53145;SDS011;39042;53.150;5.898;2023-04-28T14:39:58;52.45;;;42.78;;
53145;SDS011;39042;53.150;5.898;2023-04-28T14:44:52;33.30;;;24.17;;
53145;SDS011;39042;53.150;5.898;2023-04-28T14:47:18;34.93;;;25.23;;
53145;SDS011;39042;53.150;5.898;2023-04-28T14:49:44;36.63;;;25.33;;
53145;SDS011;39042;53.150;5.898;2023-04-28T14:52:11;37.85;;;26.90;;
53145;SDS011;39042;53.150;5.898;2023-04-28T14:54:37;33.13;;;23.27;;
53145;SDS011;39042;53.150;5.898;2023-04-28T14:57:06;31.27;;;23.88;;
53145;SDS011;39042;53.150;5.898;2023-04-28T14:59:32;33.03;;;23.20;;
53145;SDS011;39042;53.150;5.898;2023-04-28T15:02:02;31.77;;;22.27;;
53145;SDS011;39042;53.150;5.898;2023-04-28T15:04:27;29.03;;;21.03;;
53145;SDS011;39042;53.150;5.898;2023-04-28T15:06:55;31.02;;;21.77;;
53145;SDS011;39042;53.150;5.898;2023-04-28T15:09:21;29.77;;;21.85;;
53145;SDS011;39042;53.150;5.898;2023-04-28T15:11:47;33.30;;;22.50;;
53145;SDS011;39042;53.150;5.898;2023-04-28T15:14:14;30.55;;;21.25;;
53145;SDS011;39042;53.150;5.898;2023-04-28T15:16:39;30.42;;;21.95;;
53145;SDS011;39042;53.150;5.898;2023-04-28T15:19:08;27.77;;;20.98;;
53145;SDS011;39042;53.150;5.898;2023-04-28T15:21:34;27.00;;;20.63;;